sensor_id;sensor_type;location;lat;lon;timestamp;temperature;humidity
69281;SHT31;56392;51.082;17.080;2023-05-09T00:02:40;7.33;71.27
69281;SHT31;56392;51.082;17.080;2023-05-09T00:08:06;7.26;71.40
69281;SHT31;56392;51.082;17.080;2023-05-09T00:13:29;7.29;71.33
69281;SHT31;56392;51.082;17.080;2023-05-09T00:18:53;7.29;70.75
69281;SHT31;56392;51.082;17.080;2023-05-09T00:24:18;7.19;70.92
69281;SHT31;56392;51.082;17.080;2023-05-09T00:29:41;7.15;71.04
69281;SHT31;56392;51.082;17.080;2023-05-09T00:35:06;7.12;71.18
69281;SHT31;56392;51.082;17.080;2023-05-09T00:40:30;7.08;71.52
69281;SHT31;56392;51.082;17.080;2023-05-09T00:45:53;7.07;71.11
69281;SHT31;56392;51.082;17.080;2023-05-09T00:51:18;7.08;70.76
69281;SHT31;56392;51.082;17.080;2023-05-09T00:56:42;7.14;70.17
69281;SHT31;56392;51.082;17.080;2023-05-09T01:02:04;7.19;70.14
69281;SHT31;56392;51.082;17.080;2023-05-09T01:07:33;7.15;70.83
69281;SHT31;56392;51.082;17.080;2023-05-09T01:13:03;7.08;70.69
69281;SHT31;56392;51.082;17.080;2023-05-09T01:18:31;7.08;70.81
69281;SHT31;56392;51.082;17.080;2023-05-09T01:24:21;7.04;70.68
69281;SHT31;56392;51.082;17.080;2023-05-09T01:29:50;7.04;70.49
69281;SHT31;56392;51.082;17.080;2023-05-09T01:35:17;6.88;70.85
69281;SHT31;56392;51.082;17.080;2023-05-09T01:40:44;6.76;71.39
69281;SHT31;56392;51.082;17.080;2023-05-09T01:46:11;6.71;71.39
69281;SHT31;56392;51.082;17.080;2023-05-09T01:51:36;6.69;71.52
69281;SHT31;56392;51.082;17.080;2023-05-09T01:57:01;6.61;71.85
69281;SHT31;56392;51.082;17.080;2023-05-09T02:02:26;6.53;71.97
69281;SHT31;56392;51.082;17.080;2023-05-09T02:07:50;6.46;72.17
69281;SHT31;56392;51.082;17.080;2023-05-09T02:13:14;6.40;72.40
69281;SHT31;56392;51.082;17.080;2023-05-09T02:18:39;6.37;72.14
69281;SHT31;56392;51.082;17.080;2023-05-09T02:24:02;6.30;72.30
69281;SHT31;56392;51.082;17.080;2023-05-09T02:29:29;6.39;71.92
69281;SHT31;56392;51.082;17.080;2023-05-09T02:35:00;6.44;71.51
69281;SHT31;56392;51.082;17.080;2023-05-09T02:40:25;6.34;71.94
69281;SHT31;56392;51.082;17.080;2023-05-09T02:45:48;6.39;71.78
69281;SHT31;56392;51.082;17.080;2023-05-09T02:51:12;6.40;70.90
69281;SHT31;56392;51.082;17.080;2023-05-09T02:56:35;6.44;70.90
69281;SHT31;56392;51.082;17.080;2023-05-09T03:01:58;6.44;70.55
69281;SHT31;56392;51.082;17.080;2023-05-09T03:07:23;6.46;70.53
69281;SHT31;56392;51.082;17.080;2023-05-09T03:12:46;6.46;70.62
69281;SHT31;56392;51.082;17.080;2023-05-09T03:18:09;6.46;70.68
69281;SHT31;56392;51.082;17.080;2023-05-09T03:23:33;6.47;70.70
69281;SHT31;56392;51.082;17.080;2023-05-09T03:28:57;6.44;70.79
69281;SHT31;56392;51.082;17.080;2023-05-09T03:34:20;6.46;70.66
69281;SHT31;56392;51.082;17.080;2023-05-09T03:39:45;6.44;70.71
69281;SHT31;56392;51.082;17.080;2023-05-09T03:45:09;6.44;70.94
69281;SHT31;56392;51.082;17.080;2023-05-09T03:50:32;6.46;70.74
69281;SHT31;56392;51.082;17.080;2023-05-09T03:55:56;6.43;70.93
69281;SHT31;56392;51.082;17.080;2023-05-09T04:01:19;6.46;71.12
69281;SHT31;56392;51.082;17.080;2023-05-09T04:06:42;6.49;70.85
69281;SHT31;56392;51.082;17.080;2023-05-09T04:12:06;6.53;71.17
69281;SHT31;56392;51.082;17.080;2023-05-09T04:17:30;6.57;70.91
69281;SHT31;56392;51.082;17.080;2023-05-09T04:22:53;6.67;71.15
69281;SHT31;56392;51.082;17.080;2023-05-09T04:28:18;6.79;70.97
69281;SHT31;56392;51.082;17.080;2023-05-09T04:33:41;6.87;70.80
69281;SHT31;56392;51.082;17.080;2023-05-09T04:39:04;6.98;70.56
69281;SHT31;56392;51.082;17.080;2023-05-09T04:44:28;7.14;70.45
69281;SHT31;56392;51.082;17.080;2023-05-09T04:49:52;7.29;70.18
69281;SHT31;56392;51.082;17.080;2023-05-09T04:55:15;7.46;69.95
69281;SHT31;56392;51.082;17.080;2023-05-09T05:00:39;7.66;69.73
69281;SHT31;56392;51.082;17.080;2023-05-09T05:06:02;7.94;69.15
69281;SHT31;56392;51.082;17.080;2023-05-09T05:11:25;8.28;69.17
69281;SHT31;56392;51.082;17.080;2023-05-09T05:16:50;8.64;69.18
69281;SHT31;56392;51.082;17.080;2023-05-09T05:22:13;9.10;67.27
69281;SHT31;56392;51.082;17.080;2023-05-09T05:27:36;9.52;66.21
69281;SHT31;56392;51.082;17.080;2023-05-09T05:33:00;9.89;65.89
69281;SHT31;56392;51.082;17.080;2023-05-09T05:38:23;10.26;65.39
69281;SHT31;56392;51.082;17.080;2023-05-09T05:43:46;10.57;65.37
69281;SHT31;56392;51.082;17.080;2023-05-09T05:49:10;10.96;64.68
69281;SHT31;56392;51.082;17.080;2023-05-09T05:54:33;11.31;63.56
69281;SHT31;56392;51.082;17.080;2023-05-09T05:59:56;11.62;61.98
69281;SHT31;56392;51.082;17.080;2023-05-09T06:05:20;11.99;60.64
69281;SHT31;56392;51.082;17.080;2023-05-09T06:10:43;12.31;59.74
69281;SHT31;56392;51.082;17.080;2023-05-09T06:16:07;12.59;59.40
69281;SHT31;56392;51.082;17.080;2023-05-09T06:21:31;12.89;58.06
69281;SHT31;56392;51.082;17.080;2023-05-09T06:26:55;13.16;56.10
69281;SHT31;56392;51.082;17.080;2023-05-09T06:32:18;13.36;53.98
69281;SHT31;56392;51.082;17.080;2023-05-09T06:37:43;13.64;55.71
69281;SHT31;56392;51.082;17.080;2023-05-09T06:43:06;13.87;55.54
69281;SHT31;56392;51.082;17.080;2023-05-09T06:48:29;14.18;55.17
69281;SHT31;56392;51.082;17.080;2023-05-09T06:53:53;14.60;52.86
69281;SHT31;56392;51.082;17.080;2023-05-09T06:59:16;14.90;51.93
69281;SHT31;56392;51.082;17.080;2023-05-09T07:04:39;15.04;50.85
69281;SHT31;56392;51.082;17.080;2023-05-09T07:10:05;15.08;50.77
69281;SHT31;56392;51.082;17.080;2023-05-09T07:15:29;15.28;49.23
69281;SHT31;56392;51.082;17.080;2023-05-09T07:20:53;15.41;47.31
69281;SHT31;56392;51.082;17.080;2023-05-09T07:26:17;15.50;47.42
69281;SHT31;56392;51.082;17.080;2023-05-09T07:31:40;15.51;46.97
69281;SHT31;56392;51.082;17.080;2023-05-09T07:37:03;15.71;47.25
69281;SHT31;56392;51.082;17.080;2023-05-09T07:42:27;15.88;46.25
69281;SHT31;56392;51.082;17.080;2023-05-09T07:47:53;16.00;46.68
69281;SHT31;56392;51.082;17.080;2023-05-09T07:53:16;15.89;46.08
69281;SHT31;56392;51.082;17.080;2023-05-09T07:58:40;16.13;46.16
69281;SHT31;56392;51.082;17.080;2023-05-09T08:04:03;16.33;45.17
69281;SHT31;56392;51.082;17.080;2023-05-09T08:09:27;16.57;45.96
69281;SHT31;56392;51.082;17.080;2023-05-09T08:14:51;16.88;45.42
69281;SHT31;56392;51.082;17.080;2023-05-09T08:20:14;17.04;43.37
69281;SHT31;56392;51.082;17.080;2023-05-09T08:25:37;17.11;41.63
69281;SHT31;56392;51.082;17.080;2023-05-09T08:31:02;17.12;41.33
69281;SHT31;56392;51.082;17.080;2023-05-09T08:36:25;17.21;42.97
69281;SHT31;56392;51.082;17.080;2023-05-09T08:41:48;17.29;41.84
69281;SHT31;56392;51.082;17.080;2023-05-09T08:47:13;17.57;42.54
69281;SHT31;56392;51.082;17.080;2023-05-09T08:52:37;17.49;41.29
69281;SHT31;56392;51.082;17.080;2023-05-09T08:58:00;17.63;40.94
69281;SHT31;56392;51.082;17.080;2023-05-09T09:03:25;17.65;40.68
69281;SHT31;56392;51.082;17.080;2023-05-09T09:08:49;17.66;40.95
69281;SHT31;56392;51.082;17.080;2023-05-09T09:14:15;17.74;40.28
69281;SHT31;56392;51.082;17.080;2023-05-09T09:19:43;17.80;40.39
69281;SHT31;56392;51.082;17.080;2023-05-09T09:25:07;17.91;40.11
69281;SHT31;56392;51.082;17.080;2023-05-09T09:30:30;17.84;39.06
69281;SHT31;56392;51.082;17.080;2023-05-09T09:35:55;17.74;38.74
69281;SHT31;56392;51.082;17.080;2023-05-09T09:41:20;17.82;39.25
69281;SHT31;56392;51.082;17.080;2023-05-09T09:46:45;17.91;40.24
69281;SHT31;56392;51.082;17.080;2023-05-09T09:52:10;18.10;39.67
69281;SHT31;56392;51.082;17.080;2023-05-09T09:57:33;18.32;38.99
69281;SHT31;56392;51.082;17.080;2023-05-09T10:02:58;18.23;38.49
69281;SHT31;56392;51.082;17.080;2023-05-09T10:08:23;18.18;38.29
69281;SHT31;56392;51.082;17.080;2023-05-09T10:13:46;18.08;37.43
69281;SHT31;56392;51.082;17.080;2023-05-09T10:19:09;18.07;37.83
69281;SHT31;56392;51.082;17.080;2023-05-09T10:24:46;18.13;38.04
69281;SHT31;56392;51.082;17.080;2023-05-09T10:30:15;18.28;38.40
69281;SHT31;56392;51.082;17.080;2023-05-09T10:35:41;18.11;39.18
69281;SHT31;56392;51.082;17.080;2023-05-09T10:41:07;18.21;38.71
69281;SHT31;56392;51.082;17.080;2023-05-09T10:46:31;18.07;39.04
69281;SHT31;56392;51.082;17.080;2023-05-09T10:51:55;18.25;38.61
69281;SHT31;56392;51.082;17.080;2023-05-09T10:57:19;18.25;39.01
69281;SHT31;56392;51.082;17.080;2023-05-09T11:03:05;18.35;39.69
69281;SHT31;56392;51.082;17.080;2023-05-09T11:08:30;18.21;39.78
69281;SHT31;56392;51.082;17.080;2023-05-09T11:13:57;18.18;40.31
69281;SHT31;56392;51.082;17.080;2023-05-09T11:19:33;18.05;39.93
69281;SHT31;56392;51.082;17.080;2023-05-09T11:25:03;17.87;40.42
69281;SHT31;56392;51.082;17.080;2023-05-09T11:30:37;17.83;39.70
69281;SHT31;56392;51.082;17.080;2023-05-09T11:36:14;17.86;40.13
69281;SHT31;56392;51.082;17.080;2023-05-09T11:41:39;17.82;40.15
69281;SHT31;56392;51.082;17.080;2023-05-09T11:47:04;17.79;39.39
69281;SHT31;56392;51.082;17.080;2023-05-09T11:52:31;17.65;37.98
69281;SHT31;56392;51.082;17.080;2023-05-09T11:57:54;17.72;38.89
69281;SHT31;56392;51.082;17.080;2023-05-09T12:03:19;17.66;39.72
69281;SHT31;56392;51.082;17.080;2023-05-09T12:08:42;17.67;38.07
69281;SHT31;56392;51.082;17.080;2023-05-09T12:14:06;17.65;39.50
69281;SHT31;56392;51.082;17.080;2023-05-09T12:19:30;17.69;39.58
69281;SHT31;56392;51.082;17.080;2023-05-09T12:24:53;17.79;38.45
69281;SHT31;56392;51.082;17.080;2023-05-09T12:30:16;17.69;39.18
69281;SHT31;56392;51.082;17.080;2023-05-09T12:35:44;17.72;35.53
69281;SHT31;56392;51.082;17.080;2023-05-09T12:41:09;17.72;35.00
69281;SHT31;56392;51.082;17.080;2023-05-09T12:46:32;17.73;37.24
69281;SHT31;56392;51.082;17.080;2023-05-09T12:51:58;17.73;36.63
69281;SHT31;56392;51.082;17.080;2023-05-09T12:57:22;17.73;37.01
69281;SHT31;56392;51.082;17.080;2023-05-09T13:02:48;17.69;36.62
69281;SHT31;56392;51.082;17.080;2023-05-09T13:08:14;17.67;36.29
69281;SHT31;56392;51.082;17.080;2023-05-09T13:13:37;17.60;36.55
69281;SHT31;56392;51.082;17.080;2023-05-09T13:19:01;17.76;36.98
69281;SHT31;56392;51.082;17.080;2023-05-09T13:24:27;17.77;36.31
69281;SHT31;56392;51.082;17.080;2023-05-09T13:29:50;17.62;36.69
69281;SHT31;56392;51.082;17.080;2023-05-09T13:35:13;17.63;36.75
69281;SHT31;56392;51.082;17.080;2023-05-09T13:40:38;17.66;37.38
69281;SHT31;56392;51.082;17.080;2023-05-09T13:46:01;17.60;37.64
69281;SHT31;56392;51.082;17.080;2023-05-09T13:51:25;17.67;37.98
69281;SHT31;56392;51.082;17.080;2023-05-09T13:56:49;17.63;37.05
69281;SHT31;56392;51.082;17.080;2023-05-09T14:02:12;17.59;36.96
69281;SHT31;56392;51.082;17.080;2023-05-09T14:07:35;17.57;37.92
69281;SHT31;56392;51.082;17.080;2023-05-09T14:13:00;17.59;38.41
69281;SHT31;56392;51.082;17.080;2023-05-09T14:18:23;17.60;37.48
69281;SHT31;56392;51.082;17.080;2023-05-09T14:23:46;17.63;35.90
69281;SHT31;56392;51.082;17.080;2023-05-09T14:29:11;17.59;37.14
69281;SHT31;56392;51.082;17.080;2023-05-09T14:34:34;17.65;37.80
69281;SHT31;56392;51.082;17.080;2023-05-09T14:39:57;17.66;38.19
69281;SHT31;56392;51.082;17.080;2023-05-09T14:45:27;17.63;38.05
69281;SHT31;56392;51.082;17.080;2023-05-09T14:50:50;17.54;38.80
69281;SHT31;56392;51.082;17.080;2023-05-09T14:56:16;17.45;39.10
69281;SHT31;56392;51.082;17.080;2023-05-09T15:01:41;17.56;40.04
69281;SHT31;56392;51.082;17.080;2023-05-09T15:07:06;17.53;39.09
69281;SHT31;56392;51.082;17.080;2023-05-09T15:12:29;17.49;37.91
69281;SHT31;56392;51.082;17.080;2023-05-09T15:17:53;17.50;38.44
69281;SHT31;56392;51.082;17.080;2023-05-09T15:23:16;17.46;37.84
69281;SHT31;56392;51.082;17.080;2023-05-09T15:28:39;17.38;38.25
69281;SHT31;56392;51.082;17.080;2023-05-09T15:34:03;17.39;38.51
69281;SHT31;56392;51.082;17.080;2023-05-09T15:39:26;17.38;38.34
69281;SHT31;56392;51.082;17.080;2023-05-09T15:44:49;17.39;36.71
69281;SHT31;56392;51.082;17.080;2023-05-09T15:50:14;17.38;37.68
69281;SHT31;56392;51.082;17.080;2023-05-09T15:55:37;17.33;38.38
69281;SHT31;56392;51.082;17.080;2023-05-09T16:01:00;17.33;38.39
69281;SHT31;56392;51.082;17.080;2023-05-09T16:06:27;17.39;38.90
69281;SHT31;56392;51.082;17.080;2023-05-09T16:11:50;17.54;37.37
69281;SHT31;56392;51.082;17.080;2023-05-09T16:17:13;17.46;37.91
69281;SHT31;56392;51.082;17.080;2023-05-09T16:22:38;17.40;38.30
69281;SHT31;56392;51.082;17.080;2023-05-09T16:28:01;17.33;38.04
69281;SHT31;56392;51.082;17.080;2023-05-09T16:33:24;17.29;37.75
69281;SHT31;56392;51.082;17.080;2023-05-09T16:38:49;17.28;38.60
69281;SHT31;56392;51.082;17.080;2023-05-09T16:44:12;17.25;38.40
69281;SHT31;56392;51.082;17.080;2023-05-09T16:49:36;17.12;38.51
69281;SHT31;56392;51.082;17.080;2023-05-09T16:55:00;17.12;38.41
69281;SHT31;56392;51.082;17.080;2023-05-09T17:00:23;17.10;37.99
69281;SHT31;56392;51.082;17.080;2023-05-09T17:05:46;17.07;38.18
69281;SHT31;56392;51.082;17.080;2023-05-09T17:11:11;17.07;38.55
69281;SHT31;56392;51.082;17.080;2023-05-09T17:16:35;16.98;38.92
69281;SHT31;56392;51.082;17.080;2023-05-09T17:21:58;16.89;39.47
69281;SHT31;56392;51.082;17.080;2023-05-09T17:27:26;16.87;39.32
69281;SHT31;56392;51.082;17.080;2023-05-09T17:32:49;16.77;40.90
69281;SHT31;56392;51.082;17.080;2023-05-09T17:38:12;16.71;40.66
69281;SHT31;56392;51.082;17.080;2023-05-09T17:43:37;16.67;40.51
69281;SHT31;56392;51.082;17.080;2023-05-09T17:49:00;16.56;41.27
69281;SHT31;56392;51.082;17.080;2023-05-09T17:54:23;16.40;41.86
69281;SHT31;56392;51.082;17.080;2023-05-09T17:59:47;16.41;41.63
69281;SHT31;56392;51.082;17.080;2023-05-09T18:05:10;16.33;42.02
69281;SHT31;56392;51.082;17.080;2023-05-09T18:10:33;16.23;42.47
69281;SHT31;56392;51.082;17.080;2023-05-09T18:15:58;16.12;42.74
69281;SHT31;56392;51.082;17.080;2023-05-09T18:21:22;16.03;43.00
69281;SHT31;56392;51.082;17.080;2023-05-09T18:26:45;15.91;43.22
69281;SHT31;56392;51.082;17.080;2023-05-09T18:32:10;15.86;43.64
69281;SHT31;56392;51.082;17.080;2023-05-09T18:37:34;15.82;43.52
69281;SHT31;56392;51.082;17.080;2023-05-09T18:42:57;15.72;43.89
69281;SHT31;56392;51.082;17.080;2023-05-09T18:48:22;15.63;44.15
69281;SHT31;56392;51.082;17.080;2023-05-09T18:53:45;15.61;44.03
69281;SHT31;56392;51.082;17.080;2023-05-09T18:59:09;15.59;44.19
69281;SHT31;56392;51.082;17.080;2023-05-09T19:04:35;15.59;44.55
69281;SHT31;56392;51.082;17.080;2023-05-09T19:09:58;15.50;45.23
69281;SHT31;56392;51.082;17.080;2023-05-09T19:15:21;15.42;45.29
69281;SHT31;56392;51.082;17.080;2023-05-09T19:20:46;15.28;45.59
69281;SHT31;56392;51.082;17.080;2023-05-09T19:26:09;15.12;45.68
69281;SHT31;56392;51.082;17.080;2023-05-09T19:31:32;15.06;46.14
69281;SHT31;56392;51.082;17.080;2023-05-09T19:36:57;14.93;46.08
69281;SHT31;56392;51.082;17.080;2023-05-09T19:42:20;14.79;46.37
69281;SHT31;56392;51.082;17.080;2023-05-09T19:47:43;14.72;46.56
69281;SHT31;56392;51.082;17.080;2023-05-09T19:53:07;14.60;46.59
69281;SHT31;56392;51.082;17.080;2023-05-09T19:58:31;14.56;46.81
69281;SHT31;56392;51.082;17.080;2023-05-09T20:03:54;14.49;46.94
69281;SHT31;56392;51.082;17.080;2023-05-09T20:09:18;14.32;47.23
69281;SHT31;56392;51.082;17.080;2023-05-09T20:14:41;14.24;47.50
69281;SHT31;56392;51.082;17.080;2023-05-09T20:20:05;14.18;47.26
69281;SHT31;56392;51.082;17.080;2023-05-09T20:25:31;14.12;47.75
69281;SHT31;56392;51.082;17.080;2023-05-09T20:30:55;14.04;47.46
69281;SHT31;56392;51.082;17.080;2023-05-09T20:36:18;14.01;47.81
69281;SHT31;56392;51.082;17.080;2023-05-09T20:41:43;13.85;48.06
69281;SHT31;56392;51.082;17.080;2023-05-09T20:47:06;13.84;48.01
69281;SHT31;56392;51.082;17.080;2023-05-09T20:52:29;13.71;48.31
69281;SHT31;56392;51.082;17.080;2023-05-09T20:57:53;13.64;48.48
69281;SHT31;56392;51.082;17.080;2023-05-09T21:03:16;13.60;48.58
69281;SHT31;56392;51.082;17.080;2023-05-09T21:08:39;13.53;48.57
69281;SHT31;56392;51.082;17.080;2023-05-09T21:14:04;13.46;48.63
69281;SHT31;56392;51.082;17.080;2023-05-09T21:19:27;13.42;48.62
69281;SHT31;56392;51.082;17.080;2023-05-09T21:24:50;13.32;48.63
69281;SHT31;56392;51.082;17.080;2023-05-09T21:30:15;13.23;49.01
69281;SHT31;56392;51.082;17.080;2023-05-09T21:35:38;13.16;49.25
69281;SHT31;56392;51.082;17.080;2023-05-09T21:41:01;13.10;49.72
69281;SHT31;56392;51.082;17.080;2023-05-09T21:46:25;12.98;50.18
69281;SHT31;56392;51.082;17.080;2023-05-09T21:51:48;12.95;50.45
69281;SHT31;56392;51.082;17.080;2023-05-09T21:57:12;12.93;50.77
69281;SHT31;56392;51.082;17.080;2023-05-09T22:02:37;12.87;51.54
69281;SHT31;56392;51.082;17.080;2023-05-09T22:08:00;12.71;51.87
69281;SHT31;56392;51.082;17.080;2023-05-09T22:13:22;12.65;52.21
69281;SHT31;56392;51.082;17.080;2023-05-09T22:18:48;12.49;53.41
69281;SHT31;56392;51.082;17.080;2023-05-09T22:24:11;12.34;54.14
69281;SHT31;56392;51.082;17.080;2023-05-09T22:29:35;12.30;53.09
69281;SHT31;56392;51.082;17.080;2023-05-09T22:34:59;12.33;52.70
69281;SHT31;56392;51.082;17.080;2023-05-09T22:40:22;12.36;52.79
69281;SHT31;56392;51.082;17.080;2023-05-09T22:45:46;12.31;52.70
69281;SHT31;56392;51.082;17.080;2023-05-09T22:51:11;12.21;52.22
69281;SHT31;56392;51.082;17.080;2023-05-09T22:56:35;12.09;52.17
69281;SHT31;56392;51.082;17.080;2023-05-09T23:01:58;12.03;52.40
69281;SHT31;56392;51.082;17.080;2023-05-09T23:07:22;12.00;52.28
69281;SHT31;56392;51.082;17.080;2023-05-09T23:12:46;12.00;52.04
69281;SHT31;56392;51.082;17.080;2023-05-09T23:18:08;11.90;52.22
69281;SHT31;56392;51.082;17.080;2023-05-09T23:23:34;11.94;52.12
69281;SHT31;56392;51.082;17.080;2023-05-09T23:28:57;11.83;52.33
69281;SHT31;56392;51.082;17.080;2023-05-09T23:34:20;11.72;53.08
69281;SHT31;56392;51.082;17.080;2023-05-09T23:39:44;11.70;53.00
69281;SHT31;56392;51.082;17.080;2023-05-09T23:45:08;11.61;53.18
69281;SHT31;56392;51.082;17.080;2023-05-09T23:50:31;11.51;53.80
69281;SHT31;56392;51.082;17.080;2023-05-09T23:55:56;11.46;53.87
